createdAt,value
2018-12-13T00:00:27.067Z,95536.39
2018-12-13T00:02:55.482Z,95530.81
2018-12-13T00:05:23.995Z,95535.72
2018-12-13T00:07:52.404Z,95524.98
2018-12-13T00:10:20.797Z,95523.78
2018-12-13T00:12:49.208Z,95516.92
2018-12-13T00:15:21.744Z,95512.84
2018-12-13T00:17:50.283Z,95509.59
2018-12-13T00:20:18.659Z,95510.34
2018-12-13T00:22:47.087Z,95506.97
2018-12-13T00:25:15.460Z,95505.91
2018-12-13T00:27:43.875Z,95504.67
2018-12-13T00:30:12.263Z,95502.28
2018-12-13T00:32:40.667Z,95497.67
2018-12-13T00:35:09.071Z,95501.36
2018-12-13T00:37:37.724Z,95493.75
2018-12-13T00:40:06.796Z,95492.02
2018-12-13T00:42:35.170Z,95490.73
2018-12-13T00:45:05.575Z,95491.84
2018-12-13T00:47:33.961Z,95490.20
2018-12-13T00:50:04.818Z,95489.53
2018-12-13T00:52:33.239Z,95486.22
2018-12-13T00:55:03.635Z,95494.36
2018-12-13T00:57:32.021Z,95492.23
2018-12-13T01:00:00.451Z,95486.58
2018-12-13T01:02:28.833Z,95486.58
2018-12-13T01:04:57.253Z,95488.84
2018-12-13T01:07:25.752Z,95481.83
2018-12-13T01:09:54.149Z,95481.44
2018-12-13T01:12:22.561Z,95479.64
2018-12-13T01:14:50.948Z,95486.89
2018-12-13T01:17:19.340Z,95483.13
2018-12-13T01:19:48.057Z,95480.70
2018-12-13T01:22:16.568Z,95482.20
2018-12-13T01:24:45.083Z,95474.06
2018-12-13T01:27:13.492Z,95476.63
2018-12-13T01:29:41.878Z,95474.64
2018-12-13T01:32:10.299Z,95476.23
2018-12-13T01:34:38.691Z,95468.25
2018-12-13T01:37:07.429Z,95472.02
2018-12-13T01:39:35.836Z,95472.55
2018-12-13T01:42:07.003Z,95470.88
2018-12-13T01:44:35.419Z,95465.74
2018-12-13T01:47:05.566Z,95467.47
2018-12-13T01:49:34.007Z,95467.47
2018-12-13T01:52:05.307Z,95459.56
2018-12-13T01:54:33.720Z,95456.85
2018-12-13T01:57:05.331Z,95454.59
2018-12-13T01:59:33.752Z,95453.52
2018-12-13T02:02:04.661Z,95455.80
2018-12-13T02:04:33.078Z,95459.20
2018-12-13T02:07:03.421Z,95449.22
2018-12-13T02:09:31.832Z,95453.85
2018-12-13T02:12:00.345Z,95449.00
2018-12-13T02:14:29.167Z,95442.67
2018-12-13T02:16:57.648Z,95439.45
2018-12-13T02:19:26.044Z,95441.84
2018-12-13T02:21:54.473Z,95441.53
2018-12-13T02:24:22.893Z,95443.64
2018-12-13T02:26:51.284Z,95442.28
2018-12-13T02:29:19.697Z,95440.64
2018-12-13T02:31:48.746Z,95430.82
2018-12-13T02:34:17.180Z,95433.84
2018-12-13T02:36:45.573Z,95428.44
2018-12-13T02:39:13.994Z,95427.96
2018-12-13T02:41:42.382Z,95425.26
2018-12-13T02:44:10.821Z,95429.56
2018-12-13T02:46:39.213Z,95425.63
2018-12-13T02:49:09.099Z,95423.06
2018-12-13T02:51:37.482Z,95419.53
2018-12-13T02:54:06.025Z,95420.90
2018-12-13T02:56:34.434Z,95419.31
2018-12-13T02:59:05.342Z,95420.59
2018-12-13T03:01:33.725Z,95412.98
2018-12-13T03:04:04.653Z,95410.95
2018-12-13T03:06:33.073Z,95413.44
2018-12-13T03:09:03.562Z,95416.05
2018-12-13T03:11:31.988Z,95417.95
2018-12-13T03:14:00.395Z,95417.06
2018-12-13T03:16:28.768Z,95411.32
2018-12-13T03:18:57.192Z,95415.78
2018-12-13T03:21:25.585Z,95404.16
2018-12-13T03:23:54.003Z,95404.37
2018-12-13T03:26:22.393Z,95402.12
2018-12-13T03:28:50.819Z,95399.48
2018-12-13T03:31:19.250Z,95403.46
2018-12-13T03:33:47.755Z,95396.52
2018-12-13T03:36:16.258Z,95395.47
2018-12-13T03:38:45.333Z,95390.12
2018-12-13T03:41:13.716Z,95390.59
2018-12-13T03:43:42.132Z,95386.22
2018-12-13T03:46:10.517Z,95388.48
2018-12-13T03:48:38.935Z,95390.20
2018-12-13T03:51:07.356Z,95382.52
2018-12-13T03:53:35.774Z,95385.61
2018-12-13T03:56:05.216Z,95377.08
2018-12-13T03:58:33.966Z,95377.08
2018-12-13T04:01:05.360Z,95375.13
2018-12-13T04:03:33.768Z,95373.98
2018-12-13T04:06:04.456Z,95367.66
2018-12-13T04:08:32.869Z,95367.36
2018-12-13T04:11:04.336Z,95368.28
2018-12-13T04:13:32.782Z,95365.31
2018-12-13T04:16:03.451Z,95360.13
2018-12-13T04:18:31.860Z,95351.67
2018-12-13T04:21:00.234Z,95352.28
2018-12-13T04:23:28.658Z,95349.72
2018-12-13T04:25:57.032Z,95346.84
2018-12-13T04:28:25.454Z,95349.72
2018-12-13T04:30:53.851Z,95343.39
2018-12-13T04:33:22.273Z,95350.78
2018-12-13T04:35:50.796Z,95340.39
2018-12-13T04:38:19.238Z,95338.27
2018-12-13T04:40:47.636Z,95341.28
2018-12-13T04:43:16.053Z,95337.89
2018-12-13T04:45:44.447Z,95344.45
2018-12-13T04:48:12.961Z,95328.09
2018-12-13T04:50:42.152Z,95336.90
2018-12-13T04:53:10.584Z,95334.86
2018-12-13T04:55:39.020Z,95329.66
2018-12-13T04:58:07.432Z,95327.25
2018-12-13T05:00:35.876Z,95319.65
2018-12-13T05:03:05.830Z,95321.84
2018-12-13T05:05:34.262Z,95316.25
2018-12-13T05:08:05.267Z,95315.11
2018-12-13T05:10:47.093Z,95316.70
2018-12-13T05:13:15.484Z,95305.84
2018-12-13T05:15:43.928Z,95306.25
2018-12-13T05:18:12.321Z,95301.87
2018-12-13T05:20:41.361Z,95296.13
2018-12-13T05:23:09.787Z,95311.30
2018-12-13T05:25:38.209Z,95305.12
2018-12-13T05:28:06.881Z,95303.83
2018-12-13T05:30:35.326Z,95296.81
2018-12-13T05:33:05.037Z,95296.89
2018-12-13T05:35:33.464Z,95290.12
2018-12-13T05:38:04.318Z,95288.97
2018-12-13T05:40:32.749Z,95285.66
2018-12-13T05:43:03.436Z,95291.67
2018-12-13T05:45:31.900Z,95285.88
2018-12-13T05:48:00.305Z,95288.53
2018-12-13T05:50:28.761Z,95287.25
2018-12-13T05:52:57.184Z,95285.14
2018-12-13T05:55:25.633Z,95288.67
2018-12-13T05:57:54.025Z,95283.25
2018-12-13T06:00:22.456Z,95282.20
2018-12-13T06:02:50.858Z,95281.53
2018-12-13T06:05:19.313Z,95276.55
2018-12-13T06:07:47.708Z,95286.21
2018-12-13T06:10:16.141Z,95280.34
2018-12-13T06:12:44.526Z,95277.55
2018-12-13T06:15:13.096Z,95279.34
2018-12-13T06:17:42.061Z,95281.61
2018-12-13T06:20:10.586Z,95273.22
2018-12-13T06:22:39.012Z,95277.75
2018-12-13T06:25:07.577Z,95274.28
2018-12-13T06:27:36.008Z,95272.45
2018-12-13T06:30:07.600Z,95266.34
2018-12-13T06:32:36.372Z,95273.23
2018-12-13T06:35:05.693Z,95267.57
2018-12-13T06:37:34.097Z,95270.55
2018-12-13T06:40:05.220Z,95270.58
2018-12-13T06:42:33.653Z,95274.27
2018-12-13T06:45:04.633Z,95276.78
2018-12-13T06:47:33.043Z,95275.56
2018-12-13T06:50:06.036Z,95277.77
2018-12-13T06:52:34.537Z,95281.16
2018-12-13T06:55:05.504Z,95275.79
2018-12-13T06:57:34.092Z,95278.58
2018-12-13T07:00:05.423Z,95274.91
2018-12-13T07:02:33.874Z,95273.63
2018-12-13T07:05:05.382Z,95280.78
2018-12-13T07:07:33.885Z,95280.22
2018-12-13T07:10:06.645Z,95280.00
2018-12-13T07:12:35.105Z,95279.91
2018-12-13T07:15:06.633Z,95284.66
2018-12-13T07:17:35.080Z,95285.72
2018-12-13T07:20:05.628Z,95279.62
2018-12-13T07:22:34.187Z,95280.20
2018-12-13T07:25:05.384Z,95281.41
2018-12-13T07:27:33.833Z,95287.41
2018-12-13T07:30:04.720Z,95281.17
2018-12-13T07:32:33.195Z,95283.80
2018-12-13T07:35:03.667Z,95275.75
2018-12-13T07:37:32.065Z,95272.33
2018-12-13T07:40:00.485Z,95277.84
2018-12-13T17:12:05.491Z,95194.41
2018-12-13T17:14:33.996Z,95195.98
2018-12-13T17:17:02.371Z,95192.45
2018-12-13T17:19:30.770Z,95196.87
2018-12-13T17:21:59.147Z,95197.41
2018-12-13T17:24:27.565Z,95190.23
2018-12-13T17:26:55.967Z,95197.03
2018-12-13T17:29:24.453Z,95200.16
2018-12-13T17:31:52.944Z,95200.09
2018-12-13T17:34:22.052Z,95202.73
2018-12-13T17:36:50.454Z,95205.25
2018-12-13T17:39:18.853Z,95201.64
2018-12-13T17:41:47.477Z,95203.81
2018-12-13T17:44:15.952Z,95208.61
2018-12-13T17:46:44.361Z,95200.50
2018-12-13T17:49:12.996Z,95199.31
2018-12-13T17:51:41.537Z,95198.47
2018-12-13T17:54:11.176Z,95195.07
2018-12-13T17:56:39.741Z,95200.55
2018-12-13T17:59:08.477Z,95199.22
2018-12-13T18:01:36.936Z,95192.52
2018-12-13T18:04:05.372Z,95189.60
2018-12-13T18:06:33.742Z,95195.17
2018-12-13T18:09:02.164Z,95198.62
2018-12-13T18:11:30.546Z,95192.72
2018-12-13T18:13:58.984Z,95197.16
2018-12-13T18:16:27.411Z,95196.69
2018-12-13T18:18:56.195Z,95199.18
2018-12-13T18:21:24.585Z,95198.83
2018-12-13T18:23:53.001Z,95200.34
2018-12-13T18:26:21.393Z,95211.26
2018-12-13T18:28:49.796Z,95211.78
2018-12-13T18:31:18.182Z,95203.14
2018-12-13T18:33:46.697Z,95210.45
2018-12-13T18:36:15.086Z,95203.45
2018-12-13T18:38:43.494Z,95208.03
2018-12-13T18:41:11.895Z,95203.12
2018-12-13T18:43:40.337Z,95205.30
2018-12-13T18:46:08.749Z,95205.00
2018-12-13T18:48:37.189Z,95210.81
2018-12-13T18:51:05.717Z,95217.20
2018-12-13T18:53:34.362Z,95210.88
2018-12-13T18:56:02.817Z,95214.24
2018-12-13T18:58:31.435Z,95214.09
2018-12-13T19:00:59.898Z,95210.56
2018-12-13T19:03:28.318Z,95211.77
2018-12-13T19:05:56.762Z,95210.81
2018-12-13T19:08:26.175Z,95214.30
2018-12-13T19:10:54.990Z,95207.62
2018-12-13T19:13:23.589Z,95220.27
2018-12-13T19:15:52.018Z,95218.97
2018-12-13T19:18:20.499Z,95221.23
2018-12-13T19:20:48.999Z,95225.09
2018-12-13T19:23:17.513Z,95222.19
2018-12-13T19:25:45.984Z,95215.80
2018-12-13T19:28:14.391Z,95218.66
2018-12-13T19:30:42.849Z,95216.40
2018-12-13T19:33:11.308Z,95221.61
2018-12-13T19:35:39.791Z,95216.39
2018-12-13T19:38:08.236Z,95215.34
2018-12-13T19:40:36.712Z,95221.59
2018-12-13T19:43:05.261Z,95226.02
2018-12-13T19:45:34.371Z,95228.51
2018-12-13T19:48:02.915Z,95219.24
2018-12-13T19:50:31.592Z,95227.53
2018-12-13T19:53:00.106Z,95225.09
2018-12-13T19:55:28.785Z,95229.14
2018-12-13T19:58:03.801Z,95226.43
2018-12-13T20:00:32.196Z,95223.64
2018-12-13T20:03:00.592Z,95225.66
2018-12-13T20:05:28.992Z,95226.11
2018-12-13T20:07:59.045Z,95231.23
2018-12-13T20:10:27.833Z,95233.20
2018-12-13T20:12:56.325Z,95226.85
2018-12-13T20:15:24.767Z,95229.03
2018-12-13T20:17:53.229Z,95231.77
2018-12-13T20:20:22.150Z,95236.30
2018-12-13T20:22:50.592Z,95235.14
2018-12-13T20:25:18.976Z,95231.71
2018-12-13T20:27:47.420Z,95239.69
2018-12-13T20:30:16.085Z,95237.75
2018-12-13T20:32:44.543Z,95231.88
2018-12-13T20:35:13.472Z,95236.30
2018-12-13T20:37:41.962Z,95232.84
2018-12-13T20:40:10.710Z,95233.67
2018-12-13T20:42:39.172Z,95230.88
2018-12-13T20:45:08.658Z,95230.73
2018-12-13T20:47:37.220Z,95230.08
2018-12-13T20:50:06.668Z,95232.53
2018-12-13T20:52:35.128Z,95232.32
2018-12-13T20:55:03.613Z,95228.51
2018-12-13T20:57:32.069Z,95224.17
2018-12-13T21:00:00.473Z,95230.69
2018-12-13T21:02:28.858Z,95224.38
2018-12-13T21:04:57.251Z,95223.47
2018-12-13T21:07:30.988Z,95222.11
2018-12-13T21:09:59.519Z,95223.06
2018-12-13T21:12:27.912Z,95224.77
2018-12-13T21:14:56.313Z,95229.73
2018-12-13T21:17:24.707Z,95225.42
2018-12-13T21:19:53.133Z,95222.64
2018-12-13T21:22:21.577Z,95228.10
2018-12-13T21:24:50.200Z,95232.57
2018-12-13T21:27:18.720Z,95234.09
2018-12-13T21:29:47.097Z,95233.99
2018-12-13T21:32:15.514Z,95236.73
2018-12-13T21:34:44.030Z,95246.19
2018-12-13T21:37:12.445Z,95239.75
2018-12-13T21:39:40.841Z,95242.67
2018-12-13T21:42:09.284Z,95244.34
2018-12-13T21:44:37.700Z,95248.98
2018-12-13T21:47:06.119Z,95249.55
2018-12-13T21:49:34.496Z,95252.10
2018-12-13T21:52:02.909Z,95246.80
2018-12-13T21:54:31.286Z,95256.50
2018-12-13T21:56:59.908Z,95253.16
2018-12-13T21:59:28.290Z,95254.31
2018-12-13T22:01:56.713Z,95245.66
2018-12-13T22:04:25.112Z,95242.80
2018-12-13T22:06:53.519Z,95240.23
2018-12-13T22:09:21.900Z,95238.97
2018-12-13T22:11:50.330Z,95241.84
2018-12-13T22:14:18.720Z,95240.64
2018-12-13T22:16:47.132Z,95239.52
2018-12-13T22:19:15.593Z,95240.19
2018-12-13T22:21:44.172Z,95249.02
2018-12-13T22:24:12.678Z,95248.70
2018-12-13T22:26:41.129Z,95253.08
2018-12-13T22:29:09.533Z,95249.55
2018-12-13T22:31:37.928Z,95247.88
2018-12-13T22:34:06.386Z,95250.13
2018-12-13T22:36:35.226Z,95255.47
2018-12-13T22:41:41.826Z,95245.31
2018-12-13T22:44:10.324Z,95250.59
2018-12-13T22:46:38.776Z,95255.95
2018-12-13T22:49:07.175Z,95244.47
2018-12-13T22:51:35.680Z,95248.70
2018-12-13T22:54:04.070Z,95256.08
2018-12-13T22:56:32.484Z,95251.40
2018-12-13T22:59:00.869Z,95252.47
2018-12-13T23:01:29.384Z,95254.36
2018-12-13T23:03:57.758Z,95249.77
2018-12-13T23:06:26.169Z,95245.54
2018-12-13T23:08:54.553Z,95251.80
2018-12-13T23:11:22.955Z,95246.15
2018-12-13T23:13:51.330Z,95254.80
2018-12-13T23:16:19.741Z,95249.07
2018-12-13T23:18:48.112Z,95244.56
2018-12-13T23:21:16.800Z,95251.63
2018-12-13T23:23:45.200Z,95247.70
2018-12-13T23:26:13.580Z,95251.10
2018-12-13T23:28:41.985Z,95250.66
2018-12-13T23:31:10.365Z,95253.14
2018-12-13T23:33:38.787Z,95257.45
2018-12-13T23:36:07.172Z,95255.03
2018-12-13T23:38:35.566Z,95256.31
2018-12-13T23:41:04.076Z,95255.86
2018-12-13T23:43:32.477Z,95259.23
2018-12-13T23:46:00.848Z,95262.40
2018-12-13T23:48:29.250Z,95258.17
2018-12-13T23:50:57.633Z,95260.95
2018-12-13T23:53:26.389Z,95260.81
2018-12-13T23:55:55.269Z,95263.98
2018-12-13T23:58:24.068Z,95261.04
